Time;durP1;ratioP1;P1;durP2;ratioP2;P2;SDS_P1;SDS_P2;PMS_P1;PMS_P2;Temp;Humidity;BMP_temperature;BMP_pressure;BME280_temperature;BME280_humidity;BME280_pressure;Samples;Min_cycle;Max_cycle;Signal;HPM_P1;HPM_P2
2023/10/04 00:00:59;;;;;;;3.47;1.30;;;23.70;57.70;;;;;;6036742;23;88339;-84
2023/10/04 00:03:26;;;;;;;1.83;1.48;;;23.70;57.70;;;;;;6011946;23;90677;-84
2023/10/04 00:05:52;;;;;;;2.22;1.55;;;23.70;57.80;;;;;;6039080;23;87393;-84
2023/10/04 00:08:18;;;;;;;2.20;1.50;;;23.60;57.70;;;;;;6037171;23;87573;-84
2023/10/04 00:10:44;;;;;;;2.53;1.83;;;23.60;57.80;;;;;;6037605;23;94562;-84
2023/10/04 00:13:13;;;;;;;2.53;1.75;;;23.60;57.70;;;;;;6036285;23;89280;-85
2023/10/04 00:15:39;;;;;;;;;;;23.60;57.60;;;;;;6012062;23;87201;-84
2023/10/04 00:18:06;;;;;;;2.83;1.40;;;23.60;57.80;;;;;;6038545;23;87370;-84
2023/10/04 00:20:32;;;;;;;2.65;1.90;;;23.60;58.00;;;;;;6012312;23;89046;-84
2023/10/04 00:22:58;;;;;;;2.53;1.67;;;23.60;57.80;;;;;;6011746;23;89544;-85
2023/10/04 00:25:24;;;;;;;2.00;1.52;;;23.60;57.90;;;;;;6038190;23;87285;-84
2023/10/04 00:27:57;;;;;;;2.42;1.50;;;23.60;57.90;;;;;;6011882;23;90410;-85
2023/10/04 00:30:29;;;;;;;2.22;1.55;;;23.50;58.00;;;;;;6011228;23;90616;-85
2023/10/04 00:32:57;;;;;;;2.63;1.60;;;23.50;57.90;;;;;;6036356;23;88106;-85
2023/10/04 00:35:25;;;;;;;3.40;2.05;;;23.50;57.90;;;;;;6010849;23;87992;-85
2023/10/04 00:37:56;;;;;;;2.38;1.42;;;23.50;58.00;;;;;;6036370;23;88147;-86
2023/10/04 00:40:30;;;;;;;3.38;1.80;;;23.50;58.00;;;;;;6009341;23;91859;-85
2023/10/04 00:42:59;;;;;;;2.63;1.70;;;23.50;58.00;;;;;;6010055;23;88315;-85
2023/10/04 00:45:25;;;;;;;2.28;1.67;;;23.50;58.10;;;;;;6034717;23;87248;-85
2023/10/04 00:47:57;;;;;;;2.80;1.75;;;23.50;58.00;;;;;;6037501;23;89793;-85
2023/10/04 00:50:34;;;;;;;1.77;1.45;;;23.40;58.00;;;;;;6035762;23;94782;-85
2023/10/04 00:53:08;;;;;;;3.25;1.88;;;23.40;57.90;;;;;;6037542;23;87719;-85
2023/10/04 00:55:46;;;;;;;2.10;1.50;;;23.40;58.10;;;;;;6036007;23;94101;-86
2023/10/04 00:58:14;;;;;;;2.20;1.60;;;23.40;58.00;;;;;;6034949;23;87794;-85
2023/10/04 01:00:41;;;;;;;1.75;1.40;;;23.40;58.10;;;;;;6034033;23;91269;-85
2023/10/04 01:03:09;;;;;;;3.05;1.80;;;23.40;57.90;;;;;;6034642;23;91643;-86
2023/10/04 01:05:40;;;;;;;2.33;1.70;;;23.40;58.00;;;;;;6060467;23;86837;-85
2023/10/04 01:08:06;;;;;;;2.45;1.33;;;23.40;58.00;;;;;;6036789;23;87086;-85
2023/10/04 01:10:37;;;;;;;2.00;1.40;;;23.40;58.10;;;;;;6034541;23;90244;-85
2023/10/04 01:13:05;;;;;;;2.30;1.70;;;23.40;58.00;;;;;;6034789;23;89525;-85
2023/10/04 01:15:32;;;;;;;3.23;1.73;;;23.40;58.20;;;;;;6038241;23;87198;-85
2023/10/04 01:18:04;;;;;;;2.38;1.52;;;23.40;58.20;;;;;;6035621;23;87532;-85
2023/10/04 01:20:30;;;;;;;2.60;1.67;;;23.40;58.20;;;;;;6036825;23;89248;-84
2023/10/04 01:23:00;;;;;;;2.63;1.73;;;23.40;58.10;;;;;;6034203;23;89600;-86
2023/10/04 01:25:36;;;;;;;2.92;2.03;;;23.40;58.30;;;;;;6036846;23;88114;-84
2023/10/04 01:28:12;;;;;;;1.88;1.40;;;23.40;58.20;;;;;;6035938;23;86917;-85
2023/10/04 01:30:46;;;;;;;2.00;1.48;;;23.40;58.30;;;;;;6035496;23;90187;-85
2023/10/04 01:33:15;;;;;;;1.67;1.27;;;23.40;58.10;;;;;;6037593;23;88831;-85
2023/10/04 01:35:49;;;;;;;2.30;1.45;;;23.30;58.20;;;;;;6038391;23;86825;-85
2023/10/04 01:38:16;;;;;;;1.98;1.42;;;23.30;58.20;;;;;;6035533;23;89619;-85
2023/10/04 01:40:47;;;;;;;4.22;1.80;;;23.30;58.20;;;;;;6037945;23;89253;-85
2023/10/04 01:43:16;;;;;;;2.90;1.80;;;23.30;58.20;;;;;;6035587;23;87750;-84
2023/10/04 01:45:52;;;;;;;;;;;23.30;58.30;;;;;;6035124;23;87300;-84
2023/10/04 01:48:19;;;;;;;3.95;1.70;;;23.30;58.30;;;;;;6038399;23;87457;-85
2023/10/04 01:50:48;;;;;;;2.60;1.73;;;23.30;58.30;;;;;;6036073;23;89867;-85
2023/10/04 01:53:15;;;;;;;1.77;1.38;;;23.30;58.30;;;;;;6035248;23;89624;-85
2023/10/04 01:55:41;;;;;;;2.13;1.45;;;23.30;58.40;;;;;;6035036;23;86886;-85
2023/10/04 01:58:08;;;;;;;1.77;1.40;;;23.30;58.40;;;;;;6034288;23;87478;-85
2023/10/04 02:00:35;;;;;;;2.40;1.50;;;23.30;58.40;;;;;;6037378;23;87744;-85
2023/10/04 02:03:01;;;;;;;2.10;1.50;;;23.30;58.40;;;;;;6033622;23;89592;-84
2023/10/04 02:05:37;;;;;;;2.28;1.58;;;23.20;58.40;;;;;;6034723;23;87621;-85
2023/10/04 02:08:07;;;;;;;3.03;1.60;;;23.20;58.40;;;;;;6059856;23;87660;-84
2023/10/04 02:10:33;;;;;;;1.90;1.48;;;23.20;58.40;;;;;;6037606;23;89267;-85
2023/10/04 02:12:58;;;;;;;2.15;1.58;;;23.20;58.40;;;;;;6037628;23;87311;-85
2023/10/04 02:15:24;;;;;;;2.10;1.60;;;23.20;58.30;;;;;;6034219;23;88442;-85
2023/10/04 02:17:50;;;;;;;1.83;1.27;;;23.20;58.40;;;;;;6036159;23;90628;-85
2023/10/04 02:20:28;;;;;;;2.50;1.77;;;23.20;58.50;;;;;;6034656;23;90022;-85
2023/10/04 02:22:57;;;;;;;1.98;1.40;;;23.20;58.40;;;;;;6037219;23;88169;-85
2023/10/04 02:25:23;;;;;;;;;;;23.20;58.40;;;;;;6037333;23;87809;-85
2023/10/04 02:27:53;;;;;;;1.73;1.48;;;23.20;58.60;;;;;;6038384;23;87442;-84
2023/10/04 02:30:23;;;;;;;2.72;1.60;;;23.20;58.50;;;;;;6037710;23;88462;-85
2023/10/04 02:32:51;;;;;;;2.65;1.98;;;23.20;58.60;;;;;;6038256;23;88688;-84
2023/10/04 02:35:27;;;;;;;2.38;1.70;;;23.20;58.60;;;;;;6036797;23;87246;-85
2023/10/04 02:37:58;;;;;;;2.15;1.45;;;23.20;58.50;;;;;;6033938;23;90190;-85
2023/10/04 02:40:27;;;;;;;1.85;1.40;;;23.20;58.50;;;;;;6034422;23;88168;-85
2023/10/04 02:42:58;;;;;;;2.17;1.60;;;23.20;58.50;;;;;;6035257;23;88669;-85
2023/10/04 02:45:29;;;;;;;2.50;1.67;;;23.20;58.70;;;;;;6034380;23;87370;-84
2023/10/04 02:47:55;;;;;;;2.88;1.70;;;23.20;58.90;;;;;;6036327;23;87755;-85
2023/10/04 02:50:23;;;;;;;1.98;1.58;;;23.10;58.60;;;;;;6035944;23;88492;-85
2023/10/04 02:52:50;;;;;;;3.80;1.50;;;23.20;58.50;;;;;;6034211;23;89777;-85
2023/10/04 02:55:17;;;;;;;1.63;1.15;;;23.10;58.40;;;;;;6037299;23;86949;-84
2023/10/04 02:57:49;;;;;;;1.90;1.45;;;23.10;58.30;;;;;;6058780;23;88932;-85
2023/10/04 03:00:16;;;;;;;1.60;1.27;;;23.10;58.40;;;;;;6035341;23;88051;-85
2023/10/04 03:02:48;;;;;;;2.28;1.65;;;23.10;58.50;;;;;;6034946;23;89829;-85
2023/10/04 03:05:20;;;;;;;2.55;1.40;;;23.10;58.50;;;;;;6034272;23;87873;-84
2023/10/04 03:07:47;;;;;;;1.70;1.60;;;23.10;58.60;;;;;;6035109;23;88364;-85
2023/10/04 03:10:23;;;;;;;1.83;1.20;;;23.20;58.60;;;;;;6036869;23;88252;-86
2023/10/04 03:12:51;;;;;;;2.70;1.88;;;23.10;58.60;;;;;;6034845;23;87751;-85
2023/10/04 03:15:18;;;;;;;2.30;1.60;;;23.10;58.60;;;;;;6037028;23;86854;-85
2023/10/04 03:17:44;;;;;;;1.85;1.33;;;23.10;58.50;;;;;;6034866;23;89288;-85
2023/10/04 03:20:20;;;;;;;2.72;1.20;;;23.10;58.50;;;;;;6032878;23;89822;-85
2023/10/04 03:22:49;;;;;;;2.50;1.40;;;23.10;58.50;;;;;;6035606;23;87723;-85
2023/10/04 03:25:17;;;;;;;2.42;1.40;;;23.10;58.50;;;;;;6037156;23;87330;-85
2023/10/04 03:27:44;;;;;;;1.77;1.27;;;23.10;58.50;;;;;;6024339;23;88459;-85
2023/10/04 03:30:14;;;;;;;2.25;1.58;;;23.10;58.50;;;;;;6035532;23;91621;-83
2023/10/04 03:32:45;;;;;;;1.95;1.40;;;23.10;58.50;;;;;;6061924;23;88332;-85
2023/10/04 03:35:14;;;;;;;2.72;1.60;;;23.10;58.50;;;;;;6038105;23;87237;-85
2023/10/04 03:37:54;;;;;;;2.20;1.50;;;23.10;58.60;;;;;;6036333;23;87573;-85
2023/10/04 03:40:21;;;;;;;2.25;1.40;;;23.00;58.60;;;;;;6035259;23;89115;-85
2023/10/04 03:42:47;;;;;;;2.35;1.52;;;23.00;58.70;;;;;;6035619;23;88616;-84
2023/10/04 03:45:17;;;;;;;2.13;1.35;;;23.00;58.50;;;;;;6035217;23;87139;-84
2023/10/04 03:47:44;;;;;;;2.33;1.33;;;23.00;58.50;;;;;;6037260;23;88886;-85
2023/10/04 03:50:11;;;;;;;2.42;1.52;;;23.00;58.60;;;;;;6037324;23;88166;-85
2023/10/04 03:52:42;;;;;;;1.52;1.10;;;23.00;58.50;;;;;;6036960;23;87170;-84
2023/10/04 03:55:10;;;;;;;1.58;1.15;;;23.10;58.50;;;;;;6037521;23;88233;-85
2023/10/04 03:57:44;;;;;;;1.60;1.30;;;23.00;58.60;;;;;;6037592;23;87431;-85
2023/10/04 04:00:12;;;;;;;2.50;1.83;;;23.00;58.70;;;;;;6035680;23;87999;-85
2023/10/04 04:02:39;;;;;;;1.50;1.00;;;23.00;58.70;;;;;;6036544;23;90549;-85
2023/10/04 04:05:09;;;;;;;1.35;1.10;;;23.00;58.70;;;;;;6035961;23;87519;-85
2023/10/04 04:07:35;;;;;;;1.92;1.25;;;23.00;58.60;;;;;;6039479;23;87789;-85
2023/10/04 04:10:03;;;;;;;2.38;1.38;;;23.00;58.70;;;;;;6038394;23;90851;-85
2023/10/04 04:12:29;;;;;;;2.35;1.42;;;23.00;58.80;;;;;;6060755;23;88120;-85
2023/10/04 04:14:55;;;;;;;2.33;1.38;;;23.00;59.30;;;;;;6037795;23;87152;-85
2023/10/04 04:17:23;;;;;;;2.33;1.52;;;23.00;58.90;;;;;;6061461;23;88446;-84
2023/10/04 04:19:49;;;;;;;1.73;1.07;;;23.00;58.70;;;;;;6035601;23;90219;-85
2023/10/04 04:22:23;;;;;;;1.98;1.30;;;23.00;58.70;;;;;;6037793;23;88497;-85
2023/10/04 04:24:50;;;;;;;2.03;1.25;;;23.00;58.70;;;;;;6060219;23;87119;-85
2023/10/04 04:27:22;;;;;;;2.72;1.40;;;23.00;58.70;;;;;;6036631;23;88712;-85
2023/10/04 04:30:03;;;;;;;2.05;1.48;;;23.00;58.70;;;;;;6040559;23;88213;-85
2023/10/04 04:32:29;;;;;;;1.42;1.20;;;23.00;58.70;;;;;;6010451;23;91479;-85
2023/10/04 04:34:55;;;;;;;1.60;1.20;;;23.00;58.70;;;;;;6037632;23;87391;-86
2023/10/04 04:37:23;;;;;;;2.38;1.60;;;22.90;58.60;;;;;;6038342;23;86816;-85
2023/10/04 04:39:51;;;;;;;1.30;1.05;;;22.90;58.60;;;;;;6039104;23;88640;-85
2023/10/04 04:42:22;;;;;;;2.20;1.25;;;22.90;58.60;;;;;;6012312;23;90894;-85
2023/10/04 04:44:48;;;;;;;2.35;1.40;;;22.90;58.70;;;;;;6040296;23;88141;-85
2023/10/04 04:47:17;;;;;;;2.85;1.38;;;23.00;58.70;;;;;;6038478;23;87300;-85
2023/10/04 04:49:43;;;;;;;2.33;1.25;;;22.90;58.70;;;;;;6012163;23;88786;-85
2023/10/04 04:52:09;;;;;;;2.05;1.50;;;22.90;58.80;;;;;;6038570;23;88195;-85
2023/10/04 04:54:35;;;;;;;1.83;1.17;;;22.90;58.60;;;;;;6039197;23;87360;-85
2023/10/04 04:57:01;;;;;;;1.65;1.17;;;22.90;58.70;;;;;;6038334;23;87001;-86
2023/10/04 04:59:26;;;;;;;1.75;1.20;;;23.00;58.70;;;;;;6042798;23;88014;-84
2023/10/04 05:01:55;;;;;;;1.98;1.40;;;22.90;58.70;;;;;;6014028;23;88146;-85
2023/10/04 05:04:22;;;;;;;2.45;1.10;;;22.90;59.20;;;;;;6040805;23;86958;-85
2023/10/04 05:06:49;;;;;;;2.30;1.35;;;22.90;58.70;;;;;;6014733;23;87457;-84
2023/10/04 05:09:17;;;;;;;1.80;1.42;;;22.90;58.80;;;;;;6038930;23;88471;-85
2023/10/04 05:11:45;;;;;;;1.27;1.05;;;22.90;58.70;;;;;;6039090;23;89465;-84
2023/10/04 05:14:11;;;;;;;2.15;1.50;;;22.90;58.80;;;;;;6062501;23;87314;-85
2023/10/04 05:16:38;;;;;;;1.60;1.10;;;22.90;58.80;;;;;;6040021;23;87283;-85
2023/10/04 05:19:04;;;;;;;2.45;1.50;;;22.90;58.80;;;;;;6039825;23;88670;-85
2023/10/04 05:21:30;;;;;;;2.08;1.30;;;22.90;58.70;;;;;;6037211;23;90359;-84
2023/10/04 05:23:56;;;;;;;0.93;0.77;;;22.90;58.80;;;;;;6039684;23;86849;-84
2023/10/04 05:26:22;;;;;;;1.95;1.50;;;22.90;58.80;;;;;;6039486;23;86909;-84
2023/10/04 05:28:48;;;;;;;2.40;1.35;;;22.90;58.80;;;;;;6036614;23;90261;-85
2023/10/04 05:31:13;;;;;;;5.20;1.88;;;22.90;58.70;;;;;;6036856;23;89082;-84
2023/10/04 05:33:39;;;;;;;1.65;1.15;;;22.90;58.60;;;;;;6040383;23;87743;-85
2023/10/04 05:36:06;;;;;;;1.83;1.10;;;22.80;58.60;;;;;;6035476;23;87374;-85
2023/10/04 05:38:32;;;;;;;1.15;1.05;;;22.80;58.40;;;;;;6038192;23;88600;-84
2023/10/04 05:41:00;;;;;;;2.58;1.40;;;22.90;58.50;;;;;;6036353;23;86851;-85
2023/10/04 05:43:25;;;;;;;2.42;1.55;;;22.80;58.60;;;;;;6035435;23;87351;-83
2023/10/04 05:45:51;;;;;;;2.47;1.50;;;22.80;58.70;;;;;;6059686;23;87740;-84
2023/10/04 05:48:20;;;;;;;2.53;1.23;;;22.80;58.70;;;;;;6036356;23;88630;-84
2023/10/04 05:50:47;;;;;;;1.10;0.88;;;22.80;58.70;;;;;;6061375;23;89124;-85
2023/10/04 05:53:19;;;;;;;2.42;1.40;;;22.80;58.60;;;;;;6036033;23;87261;-84
2023/10/04 05:55:48;;;;;;;1.48;1.27;;;22.80;58.80;;;;;;6037360;23;86948;-84
2023/10/04 05:58:16;;;;;;;1.60;1.25;;;22.80;58.60;;;;;;6037553;23;88224;-84
2023/10/04 06:00:41;;;;;;;1.98;1.30;;;22.80;58.60;;;;;;6037557;23;88688;-84
2023/10/04 06:03:11;;;;;;;1.05;0.93;;;22.80;58.60;;;;;;6036272;23;87741;-85
2023/10/04 06:05:38;;;;;;;1.83;1.30;;;22.80;58.70;;;;;;6037337;23;87092;-84
2023/10/04 06:08:15;;;;;;;1.60;1.10;;;22.80;58.60;;;;;;6035725;23;87843;-84
2023/10/04 06:10:43;;;;;;;1.83;1.20;;;22.80;58.60;;;;;;6034352;23;89712;-85
2023/10/04 06:13:11;;;;;;;1.30;0.90;;;22.80;58.70;;;;;;6036209;23;90601;-89
2023/10/04 06:15:46;;;;;;;2.13;1.05;;;22.80;58.60;;;;;;6035079;23;88246;-88
2023/10/04 06:18:12;;;;;;;2.33;1.10;;;22.80;58.60;;;;;;6035789;23;88023;-90
2023/10/04 06:20:40;;;;;;;2.03;1.10;;;22.80;57.90;;;;;;6039265;23;87664;-93
2023/10/04 06:23:09;;;;;;;4.13;1.30;;;22.80;58.00;;;;;;6011726;23;88363;-92
2023/10/04 06:25:48;;;;;;;3.40;1.83;;;22.80;58.20;;;;;;6010603;23;87257;-87
2023/10/04 06:28:14;;;;;;;5.85;2.40;;;22.80;58.10;;;;;;6004644;23;89035;-89
2023/10/04 06:30:42;;;;;;;4.25;1.92;;;22.80;57.80;;;;;;6047518;23;88292;-87
2023/10/04 06:33:09;;;;;;;5.07;2.00;;;22.80;57.60;;;;;;6021806;23;87332;-88
2023/10/04 06:35:39;;;;;;;6.20;2.92;;;22.80;56.70;;;;;;6008516;23;88646;-94
2023/10/04 06:38:06;;;;;;;;;;;22.80;56.90;;;;;;5999213;23;90073;-89
2023/10/04 06:40:32;;;;;;;4.32;2.00;;;22.80;56.80;;;;;;6008315;23;87354;-85
2023/10/04 06:43:00;;;;;;;6.28;2.55;;;22.80;57.20;;;;;;6008525;23;87557;-91
2023/10/04 06:45:27;;;;;;;5.78;1.67;;;22.90;56.70;;;;;;6005504;23;87768;-89
2023/10/04 06:47:54;;;;;;;7.50;2.20;;;22.80;56.30;;;;;;5996150;23;88708;-85
2023/10/04 06:50:22;;;;;;;7.90;1.70;;;22.80;56.20;;;;;;6031081;23;92814;-89
2023/10/04 06:52:50;;;;;;;4.57;1.63;;;22.80;54.10;;;;;;6013527;23;87611;-88
2023/10/04 06:55:18;;;;;;;8.60;2.20;;;22.80;54.00;;;;;;6038297;23;88091;-89
2023/10/04 06:57:45;;;;;;;7.82;2.65;;;22.80;54.60;;;;;;6010813;23;90309;-88
2023/10/04 07:00:21;;;;;;;5.93;2.33;;;22.90;54.90;;;;;;6036033;23;88195;-89
2023/10/04 07:02:53;;;;;;;8.45;2.00;;;22.90;55.00;;;;;;6039228;23;87180;-90
2023/10/04 07:05:32;;;;;;;8.23;1.98;;;22.80;54.80;;;;;;6036083;23;90991;-90
2023/10/04 07:07:58;;;;;;;5.45;1.75;;;22.90;55.00;;;;;;6020224;23;90219;-88
2023/10/04 07:10:26;;;;;;;5.28;2.17;;;22.90;54.90;;;;;;6012874;23;88287;-90
2023/10/04 07:12:52;;;;;;;7.72;2.10;;;22.90;54.80;;;;;;6011385;23;88349;-90
2023/10/04 07:15:19;;;;;;;7.95;2.03;;;22.90;54.80;;;;;;6037917;23;87284;-89
2023/10/04 07:17:47;;;;;;;4.80;1.73;;;22.90;54.40;;;;;;6035650;23;89295;-90
2023/10/04 07:20:16;;;;;;;4.88;1.60;;;22.90;54.60;;;;;;6036945;23;88311;-90
2023/10/04 07:22:47;;;;;;;5.63;2.10;;;22.90;54.60;;;;;;6013139;23;87193;-91
2023/10/04 07:25:14;;;;;;;5.22;1.90;;;22.90;54.30;;;;;;6038713;23;87343;-91
2023/10/04 07:27:42;;;;;;;5.70;1.90;;;22.90;54.20;;;;;;6012141;23;87490;-91
2023/10/04 07:30:12;;;;;;;6.65;2.20;;;22.90;53.80;;;;;;6039226;23;88123;-91
2023/10/04 07:32:48;;;;;;;4.88;2.15;;;23.00;54.10;;;;;;6041244;23;86936;-92
2023/10/04 07:35:16;;;;;;;6.10;1.70;;;23.00;54.20;;;;;;6015468;23;90657;-91
2023/10/04 07:37:42;;;;;;;7.85;2.70;;;23.00;54.10;;;;;;6038318;23;89613;-92
2023/10/04 07:40:10;;;;;;;4.82;1.92;;;23.00;54.00;;;;;;6037395;23;89022;-90
2023/10/04 07:42:54;;;;;;;4.63;1.67;;;23.00;53.80;;;;;;6013331;23;87166;-91
2023/10/04 07:45:28;;;;;;;8.55;1.90;;;23.00;53.80;;;;;;6039159;23;87340;-90
2023/10/04 07:47:54;;;;;;;4.47;1.65;;;23.00;53.60;;;;;;6039999;23;87602;-87
2023/10/04 07:50:24;;;;;;;7.95;2.03;;;23.00;53.60;;;;;;6011467;23;93416;-86
2023/10/04 07:52:54;;;;;;;8.48;2.75;;;23.00;53.60;;;;;;5996174;23;88937;-87
2023/10/04 07:55:22;;;;;;;11.32;2.60;;;23.00;53.30;;;;;;6012116;23;88426;-87
2023/10/04 07:58:05;;;;;;;23.90;3.85;;;23.00;53.30;;;;;;6009177;23;91304;-87
2023/10/04 08:00:33;;;;;;;22.85;5.35;;;23.10;53.30;;;;;;6010763;23;87734;-86
2023/10/04 08:02:59;;;;;;;34.28;7.88;;;23.10;53.60;;;;;;6011874;23;89019;-90
2023/10/04 08:05:31;;;;;;;35.20;6.05;;;23.10;53.50;;;;;;6044160;23;87141;-94
2023/10/04 08:07:58;;;;;;;27.98;6.35;;;23.10;53.80;;;;;;6038684;23;87669;-86
2023/10/04 08:10:26;;;;;;;23.73;6.80;;;23.10;53.70;;;;;;6004000;23;89289;-88
2023/10/04 08:12:54;;;;;;;31.55;6.45;;;23.10;53.70;;;;;;6009629;23;86922;-86
2023/10/04 08:15:26;;;;;;;35.33;9.33;;;23.10;53.90;;;;;;6003106;23;87360;-87
2023/10/04 08:17:54;;;;;;;39.38;9.63;;;23.10;54.00;;;;;;6011274;23;87875;-87
2023/10/04 08:20:20;;;;;;;34.90;9.23;;;23.10;54.30;;;;;;6004280;23;92175;-90
2023/10/04 08:22:47;;;;;;;34.70;7.97;;;23.10;54.50;;;;;;6012999;23;87188;-90
2023/10/04 08:25:21;;;;;;;44.15;9.63;;;23.10;54.40;;;;;;6009255;23;87969;-89
2023/10/04 08:27:50;;;;;;;38.42;9.32;;;23.10;54.40;;;;;;6026177;23;89858;-88
2023/10/04 08:30:18;;;;;;;38.35;9.40;;;23.20;54.90;;;;;;6038470;23;90998;-93
2023/10/04 08:32:47;;;;;;;34.70;7.57;;;23.10;55.10;;;;;;6015543;23;87361;-91
2023/10/04 08:35:33;;;;;;;40.40;8.57;;;23.10;54.70;;;;;;6038970;23;87231;-91
2023/10/04 08:38:00;;;;;;;34.53;9.25;;;23.10;54.80;;;;;;6036711;23;88441;-88
2023/10/04 08:40:28;;;;;;;32.08;7.20;;;23.10;54.90;;;;;;6034337;23;87086;-86
2023/10/04 08:42:55;;;;;;;36.92;8.00;;;23.10;54.30;;;;;;6038671;23;87857;-90
2023/10/04 08:45:22;;;;;;;29.50;6.85;;;23.10;54.60;;;;;;6038428;23;87374;-87
2023/10/04 08:47:50;;;;;;;24.90;5.88;;;23.10;54.50;;;;;;6010523;23;90410;-87
2023/10/04 08:50:26;;;;;;;21.65;5.50;;;23.10;54.30;;;;;;6008424;23;89905;-87
2023/10/04 08:53:15;;;;;;;22.83;6.38;;;23.10;54.60;;;;;;6035870;23;88075;-90
2023/10/04 08:55:51;;;;;;;19.75;5.40;;;23.10;54.30;;;;;;6035787;23;87412;-88
2023/10/04 08:58:17;;;;;;;20.30;4.65;;;23.20;54.60;;;;;;6036712;23;87643;-88
2023/10/04 09:00:47;;;;;;;14.98;4.18;;;23.10;54.90;;;;;;6033964;23;89937;-89
2023/10/04 09:03:15;;;;;;;13.88;3.70;;;23.10;54.00;;;;;;6037118;23;86876;-86
2023/10/04 09:05:46;;;;;;;14.32;3.92;;;23.10;54.20;;;;;;6037390;23;87328;-87
2023/10/04 09:08:13;;;;;;;11.18;3.75;;;23.10;53.80;;;;;;6036548;23;87642;-84
2023/10/04 09:10:39;;;;;;;13.23;3.60;;;23.10;53.90;;;;;;6010274;23;88579;-86
2023/10/04 09:13:05;;;;;;;14.75;4.30;;;23.10;54.00;;;;;;6013478;23;86968;-90
2023/10/04 09:15:31;;;;;;;11.73;3.63;;;23.10;54.10;;;;;;6039518;23;87195;-89
2023/10/04 09:17:57;;;;;;;20.85;4.38;;;23.10;54.30;;;;;;6011681;23;90558;-90
2023/10/04 09:20:32;;;;;;;10.35;3.40;;;23.10;54.30;;;;;;6013585;23;89898;-89
2023/10/04 09:23:02;;;;;;;10.15;3.05;;;23.10;54.60;;;;;;6012975;23;87176;-90
2023/10/04 09:25:46;;;;;;;10.23;3.20;;;23.10;54.40;;;;;;6013755;23;88698;-90
2023/10/04 09:28:12;;;;;;;9.50;3.22;;;23.10;54.30;;;;;;6012996;23;88002;-89
2023/10/04 09:30:38;;;;;;;10.70;3.55;;;23.10;54.40;;;;;;6011555;23;91151;-90
2023/10/04 09:33:28;;;;;;;13.73;3.53;;;23.10;54.40;;;;;;6037392;23;94898;-90
2023/10/04 09:35:54;;;;;;;9.00;3.38;;;23.10;54.40;;;;;;6008539;23;87823;-89
2023/10/04 09:38:31;;;;;;;12.13;4.30;;;23.10;54.40;;;;;;6010669;23;89843;-90
2023/10/04 09:40:59;;;;;;;8.80;2.72;;;23.10;54.60;;;;;;6013069;23;88076;-89
2023/10/04 09:43:35;;;;;;;6.82;3.33;;;23.10;54.40;;;;;;6013509;23;88152;-89
2023/10/04 09:46:22;;;;;;;8.23;3.30;;;23.10;54.50;;;;;;6013706;23;88942;-89
2023/10/04 09:48:49;;;;;;;7.50;2.92;;;23.20;54.70;;;;;;6037347;23;89683;-89
2023/10/04 09:51:15;;;;;;;11.00;3.15;;;23.10;54.50;;;;;;6013646;23;89245;-90
2023/10/04 09:53:41;;;;;;;9.93;3.65;;;23.10;54.40;;;;;;6015754;23;87333;-90
2023/10/04 09:56:13;;;;;;;12.05;3.78;;;23.20;54.60;;;;;;6013995;23;87420;-89
2023/10/04 09:58:51;;;;;;;7.22;3.10;;;23.10;54.70;;;;;;6040758;23;87427;-90
2023/10/04 10:01:19;;;;;;;9.50;3.47;;;23.10;54.80;;;;;;6037974;23;87838;-90
2023/10/04 10:04:07;;;;;;;6.90;3.42;;;23.10;54.70;;;;;;6014086;23;86895;-88
2023/10/04 10:06:57;;;;;;;8.57;3.30;;;23.10;54.70;;;;;;5998949;23;87983;-90
2023/10/04 10:09:23;;;;;;;;;;;23.10;55.10;;;;;;6013075;23;92467;-90
2023/10/04 10:11:52;;;;;;;9.73;3.50;;;23.20;54.80;;;;;;6016116;23;88586;-90
2023/10/04 10:14:21;;;;;;;6.57;2.55;;;23.20;54.80;;;;;;6014098;23;86918;-90
2023/10/04 10:16:54;;;;;;;7.20;2.90;;;23.20;54.80;;;;;;6037294;23;88624;-89
2023/10/04 10:19:27;;;;;;;7.32;2.65;;;23.10;54.70;;;;;;6014160;23;89419;-89
2023/10/04 10:22:15;;;;;;;7.47;2.65;;;23.20;54.90;;;;;;6013473;23;88711;-89
2023/10/04 10:25:04;;;;;;;5.93;3.05;;;23.10;54.70;;;;;;6014340;23;87619;-88
2023/10/04 10:27:37;;;;;;;9.03;3.37;;;23.20;54.60;;;;;;6020220;23;86574;-89
2023/10/04 10:30:08;;;;;;;7.88;3.22;;;23.20;54.80;;;;;;6012831;23;88137;-90
2023/10/04 10:32:34;;;;;;;6.20;3.25;;;23.20;54.60;;;;;;6041248;23;88269;-93
2023/10/04 10:35:04;;;;;;;9.20;3.65;;;23.20;54.70;;;;;;6011406;23;88203;-93
2023/10/04 10:37:38;;;;;;;10.40;3.85;;;23.20;54.30;;;;;;6006629;23;90222;-91
2023/10/04 10:40:34;;;;;;;8.82;2.75;;;23.20;54.20;;;;;;6011677;23;89539;-89
2023/10/04 10:43:07;;;;;;;8.80;3.80;;;23.20;54.30;;;;;;6007129;23;87277;-87
2023/10/04 10:45:33;;;;;;;11.73;3.22;;;23.20;54.80;;;;;;6005940;23;86975;-86
2023/10/04 10:48:01;;;;;;;8.13;2.80;;;23.20;55.20;;;;;;6030665;23;87658;-87
2023/10/04 10:50:46;;;;;;;13.50;3.60;;;23.20;55.30;;;;;;6006726;23;88717;-87
2023/10/04 10:53:14;;;;;;;11.10;3.50;;;23.20;55.30;;;;;;6004849;23;88850;-88
2023/10/04 10:55:40;;;;;;;11.68;3.15;;;23.20;55.50;;;;;;6004343;23;87076;-89
2023/10/04 10:58:10;;;;;;;9.82;3.60;;;23.20;55.40;;;;;;6000164;23;89340;-89
2023/10/04 11:00:37;;;;;;;10.40;3.75;;;23.20;55.50;;;;;;6001065;23;89781;-89
2023/10/04 11:03:19;;;;;;;11.60;3.67;;;23.30;55.70;;;;;;5979955;23;90224;-89
2023/10/04 11:05:45;;;;;;;12.80;3.70;;;23.30;55.70;;;;;;6005993;23;87527;-90
2023/10/04 11:08:12;;;;;;;7.13;3.38;;;23.30;55.70;;;;;;6031183;23;87303;-89
2023/10/04 11:10:43;;;;;;;11.80;3.67;;;23.30;55.80;;;;;;6026259;23;89036;-90
2023/10/04 11:13:14;;;;;;;7.88;3.28;;;23.30;55.90;;;;;;6008110;23;93407;-90
2023/10/04 11:15:43;;;;;;;9.40;3.67;;;23.40;56.10;;;;;;6039147;23;87000;-82
2023/10/04 11:18:13;;;;;;;15.10;3.17;;;23.30;56.00;;;;;;6024690;23;86406;-84
2023/10/04 11:20:39;;;;;;;7.75;3.30;;;23.40;56.10;;;;;;6039041;23;87533;-84
2023/10/04 11:23:06;;;;;;;10.27;3.30;;;23.40;56.20;;;;;;6037903;23;88035;-89
2023/10/04 11:25:31;;;;;;;11.38;3.10;;;23.40;54.40;;;;;;6036565;23;88441;-87
2023/10/04 11:27:57;;;;;;;10.63;3.05;;;23.40;54.50;;;;;;6035521;23;88610;-86
2023/10/04 11:30:26;;;;;;;9.23;3.90;;;23.40;55.30;;;;;;6059715;23;89153;-87
2023/10/04 11:32:52;;;;;;;10.30;3.53;;;23.50;54.60;;;;;;6038445;23;87564;-86
2023/10/04 11:35:20;;;;;;;9.35;3.58;;;23.50;54.50;;;;;;6036107;23;87385;-87
2023/10/04 11:37:49;;;;;;;8.23;3.22;;;23.50;54.40;;;;;;6060355;23;88121;-87
2023/10/04 11:40:19;;;;;;;10.52;2.95;;;23.50;54.60;;;;;;6060136;23;89966;-87
2023/10/04 11:42:46;;;;;;;10.70;3.72;;;23.50;54.60;;;;;;6035975;23;89664;-86
2023/10/04 11:45:26;;;;;;;11.98;4.40;;;23.60;54.60;;;;;;6037445;23;87232;-86
2023/10/04 11:48:00;;;;;;;8.15;3.95;;;23.50;54.60;;;;;;6037586;23;87032;-87
2023/10/04 11:50:49;;;;;;;11.02;3.45;;;23.50;54.60;;;;;;6061161;23;92555;-87
2023/10/04 11:53:39;;;;;;;8.60;3.25;;;23.60;54.60;;;;;;6038768;23;90536;-90
2023/10/04 11:56:07;;;;;;;8.85;3.05;;;23.60;54.50;;;;;;6039871;23;87433;-91
2023/10/04 11:58:44;;;;;;;9.48;4.22;;;23.60;54.60;;;;;;6037988;23;87285;-93
2023/10/04 12:01:11;;;;;;;13.90;3.30;;;23.60;54.40;;;;;;6030784;23;88691;-93
2023/10/04 12:03:38;;;;;;;7.47;2.90;;;23.60;54.50;;;;;;6037236;23;87617;-92
2023/10/04 12:06:05;;;;;;;8.40;3.03;;;23.60;54.60;;;;;;6039268;23;87223;-89
2023/10/04 12:08:31;;;;;;;6.00;2.78;;;23.60;54.90;;;;;;6035046;23;86845;-89
2023/10/04 12:10:56;;;;;;;8.68;3.35;;;23.60;55.80;;;;;;6036832;23;88103;-89
2023/10/04 12:13:24;;;;;;;6.93;3.00;;;23.60;55.30;;;;;;6034191;23;91794;-90
2023/10/04 12:15:54;;;;;;;10.35;3.83;;;23.70;55.10;;;;;;6037574;23;88212;-89
2023/10/04 12:18:21;;;;;;;9.80;3.22;;;23.70;55.30;;;;;;6036325;23;87124;-90
2023/10/04 12:20:48;;;;;;;6.68;3.60;;;23.70;55.30;;;;;;6033294;23;88588;-89
2023/10/04 12:23:15;;;;;;;9.90;3.42;;;23.70;55.30;;;;;;6035393;23;88163;-90
2023/10/04 12:25:42;;;;;;;10.48;3.40;;;23.70;55.50;;;;;;6021705;23;87138;-90
2023/10/04 12:28:08;;;;;;;14.15;3.67;;;23.70;55.60;;;;;;6032212;23;87675;-89
2023/10/04 12:30:35;;;;;;;10.82;3.33;;;23.70;55.50;;;;;;6037141;23;88897;-91
2023/10/04 12:33:02;;;;;;;6.60;3.08;;;23.70;55.50;;;;;;6035356;23;89695;-89
2023/10/04 12:35:29;;;;;;;11.25;3.35;;;23.70;55.50;;;;;;6032288;23;87332;-89
2023/10/04 12:37:56;;;;;;;11.88;3.22;;;23.70;55.50;;;;;;6057238;23;87657;-88
2023/10/04 12:40:24;;;;;;;12.70;3.85;;;23.70;55.50;;;;;;6058403;23;90273;-90
2023/10/04 12:42:51;;;;;;;9.73;2.85;;;23.70;55.60;;;;;;6041568;23;89153;-91
2023/10/04 12:45:17;;;;;;;9.55;3.30;;;23.80;55.80;;;;;;6037460;23;86943;-91
2023/10/04 12:47:44;;;;;;;10.32;3.85;;;23.80;55.90;;;;;;6041945;23;88297;-90
2023/10/04 12:50:14;;;;;;;9.40;3.15;;;23.80;55.80;;;;;;6040408;23;87970;-91
2023/10/04 12:52:42;;;;;;;9.43;3.22;;;23.80;55.80;;;;;;6039804;23;89063;-91
2023/10/04 12:55:11;;;;;;;6.05;2.88;;;23.80;56.00;;;;;;6040668;23;87468;-90
2023/10/04 12:57:43;;;;;;;6.47;2.80;;;23.90;55.90;;;;;;6041946;23;87353;-91